sensor_id;sensor_type;location;lat;lon;timestamp;temperature;humidity
6822;DHT22;3449;48.728;8.968;2023-12-29T00:00:17;7.50;99.90
6822;DHT22;3449;48.728;8.968;2023-12-29T00:02:44;7.60;99.90
6822;DHT22;3449;48.728;8.968;2023-12-29T00:05:11;7.60;99.90
6822;DHT22;3449;48.728;8.968;2023-12-29T00:07:37;7.70;99.90
6822;DHT22;3449;48.728;8.968;2023-12-29T00:10:05;7.70;99.90
6822;DHT22;3449;48.728;8.968;2023-12-29T00:12:32;7.70;99.90
6822;DHT22;3449;48.728;8.968;2023-12-29T00:14:59;7.60;99.90
6822;DHT22;3449;48.728;8.968;2023-12-29T00:17:28;7.60;99.90
6822;DHT22;3449;48.728;8.968;2023-12-29T00:19:55;7.50;99.90
6822;DHT22;3449;48.728;8.968;2023-12-29T00:22:22;7.50;99.90
6822;DHT22;3449;48.728;8.968;2023-12-29T00:24:49;7.50;99.90
6822;DHT22;3449;48.728;8.968;2023-12-29T00:27:16;7.50;99.90
6822;DHT22;3449;48.728;8.968;2023-12-29T00:29:43;7.40;99.90
6822;DHT22;3449;48.728;8.968;2023-12-29T00:32:10;7.30;99.90
6822;DHT22;3449;48.728;8.968;2023-12-29T00:34:38;7.40;99.90
6822;DHT22;3449;48.728;8.968;2023-12-29T00:37:05;7.40;99.90
6822;DHT22;3449;48.728;8.968;2023-12-29T00:39:34;7.40;99.90
6822;DHT22;3449;48.728;8.968;2023-12-29T00:42:04;7.40;99.90
6822;DHT22;3449;48.728;8.968;2023-12-29T00:44:31;7.40;99.90
6822;DHT22;3449;48.728;8.968;2023-12-29T00:46:58;7.40;99.90
6822;DHT22;3449;48.728;8.968;2023-12-29T00:49:25;7.50;99.90
6822;DHT22;3449;48.728;8.968;2023-12-29T00:51:53;7.40;99.90
6822;DHT22;3449;48.728;8.968;2023-12-29T00:54:20;7.50;99.90
6822;DHT22;3449;48.728;8.968;2023-12-29T00:56:50;7.40;99.90
6822;DHT22;3449;48.728;8.968;2023-12-29T00:59:18;7.50;99.90
6822;DHT22;3449;48.728;8.968;2023-12-29T01:01:46;7.50;99.90
6822;DHT22;3449;48.728;8.968;2023-12-29T01:04:13;7.60;99.90
6822;DHT22;3449;48.728;8.968;2023-12-29T01:06:40;7.50;99.90
6822;DHT22;3449;48.728;8.968;2023-12-29T01:09:08;7.60;99.90
6822;DHT22;3449;48.728;8.968;2023-12-29T01:11:36;7.60;99.90
6822;DHT22;3449;48.728;8.968;2023-12-29T01:14:03;7.60;99.90
6822;DHT22;3449;48.728;8.968;2023-12-29T01:16:31;7.70;99.90
6822;DHT22;3449;48.728;8.968;2023-12-29T01:18:58;7.70;99.90
6822;DHT22;3449;48.728;8.968;2023-12-29T01:21:25;7.70;99.90
6822;DHT22;3449;48.728;8.968;2023-12-29T01:23:51;7.80;99.90
6822;DHT22;3449;48.728;8.968;2023-12-29T01:26:20;7.80;99.90
6822;DHT22;3449;48.728;8.968;2023-12-29T01:28:46;7.80;99.90
6822;DHT22;3449;48.728;8.968;2023-12-29T01:31:13;7.80;99.90
6822;DHT22;3449;48.728;8.968;2023-12-29T01:33:40;7.80;99.90
6822;DHT22;3449;48.728;8.968;2023-12-29T01:36:07;7.80;99.90
6822;DHT22;3449;48.728;8.968;2023-12-29T01:38:34;7.80;99.90
6822;DHT22;3449;48.728;8.968;2023-12-29T01:41:02;7.80;99.90
6822;DHT22;3449;48.728;8.968;2023-12-29T01:43:30;7.80;99.90
6822;DHT22;3449;48.728;8.968;2023-12-29T01:45:57;7.80;99.90
6822;DHT22;3449;48.728;8.968;2023-12-29T01:48:24;7.80;99.90
6822;DHT22;3449;48.728;8.968;2023-12-29T01:50:51;7.80;99.90
6822;DHT22;3449;48.728;8.968;2023-12-29T01:53:18;7.80;99.90
6822;DHT22;3449;48.728;8.968;2023-12-29T01:55:46;7.80;99.90
6822;DHT22;3449;48.728;8.968;2023-12-29T01:58:13;7.80;99.90
6822;DHT22;3449;48.728;8.968;2023-12-29T02:00:41;7.80;99.90
6822;DHT22;3449;48.728;8.968;2023-12-29T02:03:08;7.80;99.90
6822;DHT22;3449;48.728;8.968;2023-12-29T02:05:36;7.80;99.90
6822;DHT22;3449;48.728;8.968;2023-12-29T02:08:04;7.70;99.90
6822;DHT22;3449;48.728;8.968;2023-12-29T02:10:31;7.70;99.90
6822;DHT22;3449;48.728;8.968;2023-12-29T02:12:58;7.70;99.90
6822;DHT22;3449;48.728;8.968;2023-12-29T02:15:26;7.70;99.90
6822;DHT22;3449;48.728;8.968;2023-12-29T02:18:00;7.70;99.90
6822;DHT22;3449;48.728;8.968;2023-12-29T02:20:28;7.70;99.90
6822;DHT22;3449;48.728;8.968;2023-12-29T02:22:55;7.70;99.90
6822;DHT22;3449;48.728;8.968;2023-12-29T02:25:24;7.70;99.90
6822;DHT22;3449;48.728;8.968;2023-12-29T02:27:55;7.80;99.90
6822;DHT22;3449;48.728;8.968;2023-12-29T02:30:27;7.80;99.90
6822;DHT22;3449;48.728;8.968;2023-12-29T02:32:59;7.80;99.90
6822;DHT22;3449;48.728;8.968;2023-12-29T02:35:28;7.80;99.90
6822;DHT22;3449;48.728;8.968;2023-12-29T02:37:58;7.80;99.90
6822;DHT22;3449;48.728;8.968;2023-12-29T02:40:27;7.80;99.90
6822;DHT22;3449;48.728;8.968;2023-12-29T02:42:54;7.70;99.90
6822;DHT22;3449;48.728;8.968;2023-12-29T02:45:21;7.70;99.90
6822;DHT22;3449;48.728;8.968;2023-12-29T02:47:48;7.60;99.90
6822;DHT22;3449;48.728;8.968;2023-12-29T02:50:16;7.60;99.90
6822;DHT22;3449;48.728;8.968;2023-12-29T02:52:43;7.50;99.90
6822;DHT22;3449;48.728;8.968;2023-12-29T02:55:10;7.50;99.90
6822;DHT22;3449;48.728;8.968;2023-12-29T02:57:38;7.40;99.90
6822;DHT22;3449;48.728;8.968;2023-12-29T03:00:06;7.40;99.90
6822;DHT22;3449;48.728;8.968;2023-12-29T03:02:33;7.40;99.90
6822;DHT22;3449;48.728;8.968;2023-12-29T03:05:00;7.40;99.90
6822;DHT22;3449;48.728;8.968;2023-12-29T03:07:27;7.40;99.90
6822;DHT22;3449;48.728;8.968;2023-12-29T03:09:54;7.40;99.90
6822;DHT22;3449;48.728;8.968;2023-12-29T03:12:21;7.40;99.90
6822;DHT22;3449;48.728;8.968;2023-12-29T03:14:49;7.40;99.90
6822;DHT22;3449;48.728;8.968;2023-12-29T03:17:16;7.40;99.90
6822;DHT22;3449;48.728;8.968;2023-12-29T03:19:43;7.40;99.90
6822;DHT22;3449;48.728;8.968;2023-12-29T03:22:10;7.40;99.90
6822;DHT22;3449;48.728;8.968;2023-12-29T03:24:37;7.50;99.90
6822;DHT22;3449;48.728;8.968;2023-12-29T03:27:04;7.50;99.90
6822;DHT22;3449;48.728;8.968;2023-12-29T03:29:31;7.50;99.90
6822;DHT22;3449;48.728;8.968;2023-12-29T03:31:59;7.50;99.90
6822;DHT22;3449;48.728;8.968;2023-12-29T03:34:26;7.50;99.90
6822;DHT22;3449;48.728;8.968;2023-12-29T03:36:52;7.40;99.90
6822;DHT22;3449;48.728;8.968;2023-12-29T03:39:19;7.40;99.90
6822;DHT22;3449;48.728;8.968;2023-12-29T03:41:46;7.30;99.90
6822;DHT22;3449;48.728;8.968;2023-12-29T03:44:13;7.30;99.90
6822;DHT22;3449;48.728;8.968;2023-12-29T03:46:40;7.30;99.90
6822;DHT22;3449;48.728;8.968;2023-12-29T03:49:09;7.30;99.90
6822;DHT22;3449;48.728;8.968;2023-12-29T03:51:35;7.30;99.90
6822;DHT22;3449;48.728;8.968;2023-12-29T03:54:03;7.30;99.90
6822;DHT22;3449;48.728;8.968;2023-12-29T03:56:29;7.20;99.90
6822;DHT22;3449;48.728;8.968;2023-12-29T03:58:56;7.20;99.90
6822;DHT22;3449;48.728;8.968;2023-12-29T04:01:24;7.20;99.90
6822;DHT22;3449;48.728;8.968;2023-12-29T04:03:53;7.20;99.90
6822;DHT22;3449;48.728;8.968;2023-12-29T04:06:21;7.20;99.90
6822;DHT22;3449;48.728;8.968;2023-12-29T04:08:48;7.20;99.90
6822;DHT22;3449;48.728;8.968;2023-12-29T04:11:15;7.20;99.90
6822;DHT22;3449;48.728;8.968;2023-12-29T04:13:41;7.20;99.90
6822;DHT22;3449;48.728;8.968;2023-12-29T04:16:08;7.20;99.90
6822;DHT22;3449;48.728;8.968;2023-12-29T04:18:35;7.20;99.90
6822;DHT22;3449;48.728;8.968;2023-12-29T04:21:02;7.20;99.90
6822;DHT22;3449;48.728;8.968;2023-12-29T04:23:30;7.20;99.90
6822;DHT22;3449;48.728;8.968;2023-12-29T04:25:57;7.20;99.90
6822;DHT22;3449;48.728;8.968;2023-12-29T04:28:24;7.20;99.90
6822;DHT22;3449;48.728;8.968;2023-12-29T04:30:51;7.20;99.90
6822;DHT22;3449;48.728;8.968;2023-12-29T04:33:18;7.20;99.90
6822;DHT22;3449;48.728;8.968;2023-12-29T04:35:45;7.20;99.90
6822;DHT22;3449;48.728;8.968;2023-12-29T04:38:11;7.20;99.90
6822;DHT22;3449;48.728;8.968;2023-12-29T04:40:40;7.20;99.90
6822;DHT22;3449;48.728;8.968;2023-12-29T04:43:07;7.20;99.90
6822;DHT22;3449;48.728;8.968;2023-12-29T04:45:33;7.20;99.90
6822;DHT22;3449;48.728;8.968;2023-12-29T04:48:00;7.20;99.90
6822;DHT22;3449;48.728;8.968;2023-12-29T04:50:27;7.30;99.90
6822;DHT22;3449;48.728;8.968;2023-12-29T04:52:54;7.30;99.90
6822;DHT22;3449;48.728;8.968;2023-12-29T04:55:21;7.30;99.90
6822;DHT22;3449;48.728;8.968;2023-12-29T04:57:49;7.30;99.90
6822;DHT22;3449;48.728;8.968;2023-12-29T05:00:16;7.20;99.90
6822;DHT22;3449;48.728;8.968;2023-12-29T05:02:43;7.20;99.90
6822;DHT22;3449;48.728;8.968;2023-12-29T05:05:10;7.20;99.90
6822;DHT22;3449;48.728;8.968;2023-12-29T05:07:36;7.20;99.90
6822;DHT22;3449;48.728;8.968;2023-12-29T05:10:04;7.20;99.90
6822;DHT22;3449;48.728;8.968;2023-12-29T05:12:31;7.20;99.90
6822;DHT22;3449;48.728;8.968;2023-12-29T05:14:59;7.20;99.90
6822;DHT22;3449;48.728;8.968;2023-12-29T05:17:26;7.20;99.90
6822;DHT22;3449;48.728;8.968;2023-12-29T05:19:52;7.20;99.90
6822;DHT22;3449;48.728;8.968;2023-12-29T05:22:19;7.30;99.90
6822;DHT22;3449;48.728;8.968;2023-12-29T05:24:46;7.30;99.90
6822;DHT22;3449;48.728;8.968;2023-12-29T05:27:13;7.30;99.90
6822;DHT22;3449;48.728;8.968;2023-12-29T05:29:40;7.30;99.90
6822;DHT22;3449;48.728;8.968;2023-12-29T05:32:08;7.30;99.90
6822;DHT22;3449;48.728;8.968;2023-12-29T05:34:35;7.30;99.90
6822;DHT22;3449;48.728;8.968;2023-12-29T05:37:02;7.30;99.90
6822;DHT22;3449;48.728;8.968;2023-12-29T05:39:29;7.30;99.90
6822;DHT22;3449;48.728;8.968;2023-12-29T05:41:56;7.30;99.90
6822;DHT22;3449;48.728;8.968;2023-12-29T05:44:23;7.30;99.90
6822;DHT22;3449;48.728;8.968;2023-12-29T05:46:50;7.30;99.90
6822;DHT22;3449;48.728;8.968;2023-12-29T05:49:18;7.30;99.90
6822;DHT22;3449;48.728;8.968;2023-12-29T05:51:45;7.30;99.90
6822;DHT22;3449;48.728;8.968;2023-12-29T05:54:12;7.30;99.90
6822;DHT22;3449;48.728;8.968;2023-12-29T05:56:39;7.30;99.90
6822;DHT22;3449;48.728;8.968;2023-12-29T05:59:06;7.30;99.90
6822;DHT22;3449;48.728;8.968;2023-12-29T06:01:33;7.30;99.90
6822;DHT22;3449;48.728;8.968;2023-12-29T06:04:00;7.30;99.90
6822;DHT22;3449;48.728;8.968;2023-12-29T06:06:28;7.30;99.90
6822;DHT22;3449;48.728;8.968;2023-12-29T06:08:55;7.30;99.90
6822;DHT22;3449;48.728;8.968;2023-12-29T06:11:22;7.30;99.90
6822;DHT22;3449;48.728;8.968;2023-12-29T06:13:49;7.40;99.90
6822;DHT22;3449;48.728;8.968;2023-12-29T06:16:19;7.40;99.90
6822;DHT22;3449;48.728;8.968;2023-12-29T06:18:47;7.40;99.90
6822;DHT22;3449;48.728;8.968;2023-12-29T06:21:14;7.40;99.90
6822;DHT22;3449;48.728;8.968;2023-12-29T06:23:42;7.40;99.90
6822;DHT22;3449;48.728;8.968;2023-12-29T06:26:19;7.40;99.90
6822;DHT22;3449;48.728;8.968;2023-12-29T06:28:46;7.40;99.90
6822;DHT22;3449;48.728;8.968;2023-12-29T06:31:13;7.40;99.90
6822;DHT22;3449;48.728;8.968;2023-12-29T06:33:41;7.40;99.90
6822;DHT22;3449;48.728;8.968;2023-12-29T06:36:08;7.40;99.90
6822;DHT22;3449;48.728;8.968;2023-12-29T06:38:35;7.40;99.90
6822;DHT22;3449;48.728;8.968;2023-12-29T06:41:04;7.40;99.90
6822;DHT22;3449;48.728;8.968;2023-12-29T06:43:31;7.40;99.90
6822;DHT22;3449;48.728;8.968;2023-12-29T06:46:00;7.40;99.90
6822;DHT22;3449;48.728;8.968;2023-12-29T06:48:27;7.40;99.90
6822;DHT22;3449;48.728;8.968;2023-12-29T06:50:53;7.40;99.90
6822;DHT22;3449;48.728;8.968;2023-12-29T06:53:20;7.50;99.90
6822;DHT22;3449;48.728;8.968;2023-12-29T06:55:47;7.40;99.90
6822;DHT22;3449;48.728;8.968;2023-12-29T06:58:16;7.50;99.90
6822;DHT22;3449;48.728;8.968;2023-12-29T07:00:43;7.40;99.90
6822;DHT22;3449;48.728;8.968;2023-12-29T07:03:12;7.50;99.90
6822;DHT22;3449;48.728;8.968;2023-12-29T07:05:39;7.50;99.90
6822;DHT22;3449;48.728;8.968;2023-12-29T07:08:06;7.50;99.90
6822;DHT22;3449;48.728;8.968;2023-12-29T07:10:34;7.50;99.90
6822;DHT22;3449;48.728;8.968;2023-12-29T07:13:01;7.50;99.90
6822;DHT22;3449;48.728;8.968;2023-12-29T07:15:29;7.50;99.90
6822;DHT22;3449;48.728;8.968;2023-12-29T07:17:56;7.50;99.90
6822;DHT22;3449;48.728;8.968;2023-12-29T07:20:24;7.50;99.90
6822;DHT22;3449;48.728;8.968;2023-12-29T07:22:51;7.50;99.90
6822;DHT22;3449;48.728;8.968;2023-12-29T07:25:18;7.50;99.90
6822;DHT22;3449;48.728;8.968;2023-12-29T07:27:45;7.50;99.90
6822;DHT22;3449;48.728;8.968;2023-12-29T07:30:13;7.50;99.90
6822;DHT22;3449;48.728;8.968;2023-12-29T07:32:42;7.50;99.90
6822;DHT22;3449;48.728;8.968;2023-12-29T07:35:09;7.50;99.90
6822;DHT22;3449;48.728;8.968;2023-12-29T07:37:36;7.50;99.90
6822;DHT22;3449;48.728;8.968;2023-12-29T07:40:03;7.50;99.90
6822;DHT22;3449;48.728;8.968;2023-12-29T07:42:33;7.50;99.90
6822;DHT22;3449;48.728;8.968;2023-12-29T07:45:00;7.50;99.90
6822;DHT22;3449;48.728;8.968;2023-12-29T07:47:27;7.50;99.90
6822;DHT22;3449;48.728;8.968;2023-12-29T07:49:55;7.50;99.90
6822;DHT22;3449;48.728;8.968;2023-12-29T07:52:22;7.50;99.90
6822;DHT22;3449;48.728;8.968;2023-12-29T07:54:49;7.60;99.90
6822;DHT22;3449;48.728;8.968;2023-12-29T07:57:16;7.60;99.90
6822;DHT22;3449;48.728;8.968;2023-12-29T07:59:42;7.60;99.90
6822;DHT22;3449;48.728;8.968;2023-12-29T08:02:09;7.60;99.90
6822;DHT22;3449;48.728;8.968;2023-12-29T08:04:36;7.60;99.90
6822;DHT22;3449;48.728;8.968;2023-12-29T08:07:05;7.60;99.90
6822;DHT22;3449;48.728;8.968;2023-12-29T08:09:32;7.70;99.90
6822;DHT22;3449;48.728;8.968;2023-12-29T08:11:59;7.70;99.90
6822;DHT22;3449;48.728;8.968;2023-12-29T08:14:26;7.70;99.90
6822;DHT22;3449;48.728;8.968;2023-12-29T08:16:53;7.70;99.90
6822;DHT22;3449;48.728;8.968;2023-12-29T08:19:22;7.70;99.90
6822;DHT22;3449;48.728;8.968;2023-12-29T08:21:50;7.70;99.90
6822;DHT22;3449;48.728;8.968;2023-12-29T08:24:18;7.70;99.90
6822;DHT22;3449;48.728;8.968;2023-12-29T08:26:46;7.70;99.90
6822;DHT22;3449;48.728;8.968;2023-12-29T08:29:14;7.70;99.90
6822;DHT22;3449;48.728;8.968;2023-12-29T08:31:41;7.70;99.90
6822;DHT22;3449;48.728;8.968;2023-12-29T08:34:08;7.70;99.90
6822;DHT22;3449;48.728;8.968;2023-12-29T08:36:35;7.70;99.90
6822;DHT22;3449;48.728;8.968;2023-12-29T08:39:02;7.70;99.90
6822;DHT22;3449;48.728;8.968;2023-12-29T08:41:30;7.80;99.90
6822;DHT22;3449;48.728;8.968;2023-12-29T08:43:57;7.80;99.90
6822;DHT22;3449;48.728;8.968;2023-12-29T08:46:24;7.80;99.90
6822;DHT22;3449;48.728;8.968;2023-12-29T08:48:51;7.80;99.90
6822;DHT22;3449;48.728;8.968;2023-12-29T08:51:18;7.80;99.90
6822;DHT22;3449;48.728;8.968;2023-12-29T08:53:44;7.80;99.90
6822;DHT22;3449;48.728;8.968;2023-12-29T08:56:11;7.90;99.90
6822;DHT22;3449;48.728;8.968;2023-12-29T08:58:40;7.80;99.90
6822;DHT22;3449;48.728;8.968;2023-12-29T09:01:07;7.80;99.90
6822;DHT22;3449;48.728;8.968;2023-12-29T09:03:34;7.80;99.90
6822;DHT22;3449;48.728;8.968;2023-12-29T09:06:01;7.90;99.90
6822;DHT22;3449;48.728;8.968;2023-12-29T09:08:29;7.90;99.90
6822;DHT22;3449;48.728;8.968;2023-12-29T09:10:56;7.90;99.90
6822;DHT22;3449;48.728;8.968;2023-12-29T09:13:22;7.90;99.90
6822;DHT22;3449;48.728;8.968;2023-12-29T09:15:52;8.00;99.90
6822;DHT22;3449;48.728;8.968;2023-12-29T09:18:19;8.00;99.90
6822;DHT22;3449;48.728;8.968;2023-12-29T09:20:46;8.00;99.90
6822;DHT22;3449;48.728;8.968;2023-12-29T09:23:14;8.10;99.90
6822;DHT22;3449;48.728;8.968;2023-12-29T09:25:40;8.10;99.90
6822;DHT22;3449;48.728;8.968;2023-12-29T09:28:07;8.20;99.90
6822;DHT22;3449;48.728;8.968;2023-12-29T09:30:34;8.20;99.90
6822;DHT22;3449;48.728;8.968;2023-12-29T09:33:03;8.20;99.90
6822;DHT22;3449;48.728;8.968;2023-12-29T09:35:30;8.20;99.90
6822;DHT22;3449;48.728;8.968;2023-12-29T09:37:57;8.30;99.90
6822;DHT22;3449;48.728;8.968;2023-12-29T09:40:25;8.30;99.90
6822;DHT22;3449;48.728;8.968;2023-12-29T09:42:52;8.30;99.90
6822;DHT22;3449;48.728;8.968;2023-12-29T09:45:23;8.40;99.90
6822;DHT22;3449;48.728;8.968;2023-12-29T09:47:51;8.40;99.90
6822;DHT22;3449;48.728;8.968;2023-12-29T09:50:21;8.40;99.90
6822;DHT22;3449;48.728;8.968;2023-12-29T09:52:49;8.50;99.90
6822;DHT22;3449;48.728;8.968;2023-12-29T09:55:17;8.50;99.90
6822;DHT22;3449;48.728;8.968;2023-12-29T09:57:44;8.50;99.90
6822;DHT22;3449;48.728;8.968;2023-12-29T10:00:17;8.60;99.90
6822;DHT22;3449;48.728;8.968;2023-12-29T10:02:46;8.60;99.90
6822;DHT22;3449;48.728;8.968;2023-12-29T10:05:15;8.60;99.90
6822;DHT22;3449;48.728;8.968;2023-12-29T10:07:46;8.70;99.90
6822;DHT22;3449;48.728;8.968;2023-12-29T10:10:15;8.80;99.90
6822;DHT22;3449;48.728;8.968;2023-12-29T10:12:42;8.90;99.90
6822;DHT22;3449;48.728;8.968;2023-12-29T10:15:12;8.90;99.90
6822;DHT22;3449;48.728;8.968;2023-12-29T10:17:51;9.00;99.90
6822;DHT22;3449;48.728;8.968;2023-12-29T10:20:31;9.20;99.90
6822;DHT22;3449;48.728;8.968;2023-12-29T10:23:06;9.20;99.90
6822;DHT22;3449;48.728;8.968;2023-12-29T10:25:34;9.20;99.90
6822;DHT22;3449;48.728;8.968;2023-12-29T10:28:01;9.40;99.90
6822;DHT22;3449;48.728;8.968;2023-12-29T10:30:29;9.50;99.90
6822;DHT22;3449;48.728;8.968;2023-12-29T10:32:57;9.70;99.90
6822;DHT22;3449;48.728;8.968;2023-12-29T10:35:25;9.70;99.90
6822;DHT22;3449;48.728;8.968;2023-12-29T10:37:52;9.90;99.90
6822;DHT22;3449;48.728;8.968;2023-12-29T10:40:21;10.10;99.90
6822;DHT22;3449;48.728;8.968;2023-12-29T10:42:54;10.30;99.90
6822;DHT22;3449;48.728;8.968;2023-12-29T10:45:23;10.40;99.90
6822;DHT22;3449;48.728;8.968;2023-12-29T10:47:50;10.40;99.90
6822;DHT22;3449;48.728;8.968;2023-12-29T10:50:17;10.40;99.90
6822;DHT22;3449;48.728;8.968;2023-12-29T10:52:44;10.40;99.90
6822;DHT22;3449;48.728;8.968;2023-12-29T10:55:12;10.50;99.90
6822;DHT22;3449;48.728;8.968;2023-12-29T10:57:40;10.60;99.90
6822;DHT22;3449;48.728;8.968;2023-12-29T11:00:08;10.60;99.90
6822;DHT22;3449;48.728;8.968;2023-12-29T11:02:38;10.80;99.90
6822;DHT22;3449;48.728;8.968;2023-12-29T11:05:06;11.10;99.90
6822;DHT22;3449;48.728;8.968;2023-12-29T11:07:38;11.20;99.90
6822;DHT22;3449;48.728;8.968;2023-12-29T11:10:07;11.40;99.90
6822;DHT22;3449;48.728;8.968;2023-12-29T11:12:35;11.40;99.90
6822;DHT22;3449;48.728;8.968;2023-12-29T11:15:05;11.30;99.90
6822;DHT22;3449;48.728;8.968;2023-12-29T11:17:34;11.30;99.90
6822;DHT22;3449;48.728;8.968;2023-12-29T11:20:03;11.40;99.90
6822;DHT22;3449;48.728;8.968;2023-12-29T11:22:30;11.60;99.90
6822;DHT22;3449;48.728;8.968;2023-12-29T11:24:58;11.80;99.90
6822;DHT22;3449;48.728;8.968;2023-12-29T11:27:27;11.70;1.00
6822;DHT22;3449;48.728;8.968;2023-12-29T11:29:56;11.70;42.20
6822;DHT22;3449;48.728;8.968;2023-12-29T11:32:30;11.50;23.90
6822;DHT22;3449;48.728;8.968;2023-12-29T11:35:03;11.30;12.90
6822;DHT22;3449;48.728;8.968;2023-12-29T11:37:42;11.20;28.00
6822;DHT22;3449;48.728;8.968;2023-12-29T11:40:19;11.20;1.00
6822;DHT22;3449;48.728;8.968;2023-12-29T11:42:49;11.20;1.00
6822;DHT22;3449;48.728;8.968;2023-12-29T11:45:28;11.20;1.00
6822;DHT22;3449;48.728;8.968;2023-12-29T11:47:56;11.00;1.00
6822;DHT22;3449;48.728;8.968;2023-12-29T11:50:29;11.00;1.00
6822;DHT22;3449;48.728;8.968;2023-12-29T11:52:56;10.90;1.00
6822;DHT22;3449;48.728;8.968;2023-12-29T11:55:28;11.00;1.00
6822;DHT22;3449;48.728;8.968;2023-12-29T11:57:55;10.90;1.00
6822;DHT22;3449;48.728;8.968;2023-12-29T12:00:41;10.90;17.70
6822;DHT22;3449;48.728;8.968;2023-12-29T12:03:17;11.00;1.00
6822;DHT22;3449;48.728;8.968;2023-12-29T12:05:45;10.80;1.00
6822;DHT22;3449;48.728;8.968;2023-12-29T12:08:26;10.70;1.00
6822;DHT22;3449;48.728;8.968;2023-12-29T12:10:54;10.80;1.90
6822;DHT22;3449;48.728;8.968;2023-12-29T12:13:42;11.00;1.00
6822;DHT22;3449;48.728;8.968;2023-12-29T12:16:09;11.20;1.00
6822;DHT22;3449;48.728;8.968;2023-12-29T12:18:38;11.10;1.00
6822;DHT22;3449;48.728;8.968;2023-12-29T12:21:06;11.10;1.00
6822;DHT22;3449;48.728;8.968;2023-12-29T12:23:36;11.30;99.90
6822;DHT22;3449;48.728;8.968;2023-12-29T12:26:06;11.50;99.90
6822;DHT22;3449;48.728;8.968;2023-12-29T12:28:33;11.60;99.90
6822;DHT22;3449;48.728;8.968;2023-12-29T12:31:06;11.80;99.90
6822;DHT22;3449;48.728;8.968;2023-12-29T12:33:34;11.90;99.90
6822;DHT22;3449;48.728;8.968;2023-12-29T12:36:03;11.80;99.90
6822;DHT22;3449;48.728;8.968;2023-12-29T12:38:30;11.90;99.90
6822;DHT22;3449;48.728;8.968;2023-12-29T12:41:09;11.90;99.90
6822;DHT22;3449;48.728;8.968;2023-12-29T12:43:39;11.90;1.00
6822;DHT22;3449;48.728;8.968;2023-12-29T12:46:11;11.90;99.90
6822;DHT22;3449;48.728;8.968;2023-12-29T12:48:41;12.30;1.00
6822;DHT22;3449;48.728;8.968;2023-12-29T12:51:11;12.60;60.90
6822;DHT22;3449;48.728;8.968;2023-12-29T12:53:40;12.40;99.90
6822;DHT22;3449;48.728;8.968;2023-12-29T12:56:07;12.60;89.60
6822;DHT22;3449;48.728;8.968;2023-12-29T12:58:34;12.30;1.00
6822;DHT22;3449;48.728;8.968;2023-12-29T13:01:02;12.40;99.90
6822;DHT22;3449;48.728;8.968;2023-12-29T13:03:30;12.70;1.00
6822;DHT22;3449;48.728;8.968;2023-12-29T13:05:58;12.80;99.90
6822;DHT22;3449;48.728;8.968;2023-12-29T13:08:27;13.00;99.90
6822;DHT22;3449;48.728;8.968;2023-12-29T13:10:56;12.80;99.90
6822;DHT22;3449;48.728;8.968;2023-12-29T13:13:23;12.40;79.00
6822;DHT22;3449;48.728;8.968;2023-12-29T13:15:51;11.90;99.90
6822;DHT22;3449;48.728;8.968;2023-12-29T13:18:28;11.50;42.60
6822;DHT22;3449;48.728;8.968;2023-12-29T13:20:56;11.30;99.90
6822;DHT22;3449;48.728;8.968;2023-12-29T13:23:26;11.20;99.90
6822;DHT22;3449;48.728;8.968;2023-12-29T13:25:55;11.10;1.00
6822;DHT22;3449;48.728;8.968;2023-12-29T13:28:23;11.10;1.00
6822;DHT22;3449;48.728;8.968;2023-12-29T13:30:50;11.00;99.90
6822;DHT22;3449;48.728;8.968;2023-12-29T13:33:25;11.00;1.00
6822;DHT22;3449;48.728;8.968;2023-12-29T13:35:56;11.00;28.10
6822;DHT22;3449;48.728;8.968;2023-12-29T13:38:35;11.00;1.00
6822;DHT22;3449;48.728;8.968;2023-12-29T13:41:05;11.00;1.00
6822;DHT22;3449;48.728;8.968;2023-12-29T13:43:36;10.90;99.90
6822;DHT22;3449;48.728;8.968;2023-12-29T13:46:09;10.80;1.00
6822;DHT22;3449;48.728;8.968;2023-12-29T13:48:36;10.90;1.00
6822;DHT22;3449;48.728;8.968;2023-12-29T13:51:04;10.80;99.90
6822;DHT22;3449;48.728;8.968;2023-12-29T13:53:32;10.80;1.00
6822;DHT22;3449;48.728;8.968;2023-12-29T13:56:06;10.70;1.00
6822;DHT22;3449;48.728;8.968;2023-12-29T13:58:33;10.70;1.00
6822;DHT22;3449;48.728;8.968;2023-12-29T14:01:00;10.70;16.10
6822;DHT22;3449;48.728;8.968;2023-12-29T14:03:31;10.70;99.90
6822;DHT22;3449;48.728;8.968;2023-12-29T14:06:00;10.70;1.00
6822;DHT22;3449;48.728;8.968;2023-12-29T14:08:33;10.70;5.00
6822;DHT22;3449;48.728;8.968;2023-12-29T14:11:00;10.70;99.90
6822;DHT22;3449;48.728;8.968;2023-12-29T14:13:27;10.60;99.90
6822;DHT22;3449;48.728;8.968;2023-12-29T14:15:58;10.60;99.90
6822;DHT22;3449;48.728;8.968;2023-12-29T14:18:48;10.60;1.00
6822;DHT22;3449;48.728;8.968;2023-12-29T14:21:22;10.50;99.90
6822;DHT22;3449;48.728;8.968;2023-12-29T14:24:02;10.50;99.90
6822;DHT22;3449;48.728;8.968;2023-12-29T14:26:29;10.50;99.90
6822;DHT22;3449;48.728;8.968;2023-12-29T14:29:03;10.40;99.90
6822;DHT22;3449;48.728;8.968;2023-12-29T14:31:35;10.40;99.90
6822;DHT22;3449;48.728;8.968;2023-12-29T14:34:03;10.50;1.00
6822;DHT22;3449;48.728;8.968;2023-12-29T14:36:31;10.50;2.60
6822;DHT22;3449;48.728;8.968;2023-12-29T14:38:58;10.50;99.90
6822;DHT22;3449;48.728;8.968;2023-12-29T14:41:26;10.50;99.90
6822;DHT22;3449;48.728;8.968;2023-12-29T14:43:53;10.40;99.90
6822;DHT22;3449;48.728;8.968;2023-12-29T14:46:20;10.40;99.90
6822;DHT22;3449;48.728;8.968;2023-12-29T14:48:48;10.30;1.00
6822;DHT22;3449;48.728;8.968;2023-12-29T14:51:15;10.30;99.90
6822;DHT22;3449;48.728;8.968;2023-12-29T14:53:43;10.30;99.90
6822;DHT22;3449;48.728;8.968;2023-12-29T14:56:11;10.20;99.90
6822;DHT22;3449;48.728;8.968;2023-12-29T14:58:39;10.20;99.90
6822;DHT22;3449;48.728;8.968;2023-12-29T15:01:06;10.10;99.90
6822;DHT22;3449;48.728;8.968;2023-12-29T15:03:33;10.10;99.90
6822;DHT22;3449;48.728;8.968;2023-12-29T15:06:00;10.10;1.00
6822;DHT22;3449;48.728;8.968;2023-12-29T15:08:28;10.10;99.90
6822;DHT22;3449;48.728;8.968;2023-12-29T15:11:00;10.00;1.00
6822;DHT22;3449;48.728;8.968;2023-12-29T15:13:27;10.00;99.90
6822;DHT22;3449;48.728;8.968;2023-12-29T15:15:57;9.90;99.90
6822;DHT22;3449;48.728;8.968;2023-12-29T15:18:25;9.90;1.00
6822;DHT22;3449;48.728;8.968;2023-12-29T15:20:53;9.80;1.00
6822;DHT22;3449;48.728;8.968;2023-12-29T15:23:19;9.80;99.90
6822;DHT22;3449;48.728;8.968;2023-12-29T15:25:48;9.80;99.90
6822;DHT22;3449;48.728;8.968;2023-12-29T15:28:15;9.70;99.90
6822;DHT22;3449;48.728;8.968;2023-12-29T15:30:43;9.70;99.90
6822;DHT22;3449;48.728;8.968;2023-12-29T15:33:11;9.60;1.00
6822;DHT22;3449;48.728;8.968;2023-12-29T15:35:38;9.60;99.90
6822;DHT22;3449;48.728;8.968;2023-12-29T15:38:06;9.60;99.90
6822;DHT22;3449;48.728;8.968;2023-12-29T15:40:33;9.50;99.90
6822;DHT22;3449;48.728;8.968;2023-12-29T15:43:00;9.50;99.90
6822;DHT22;3449;48.728;8.968;2023-12-29T15:45:29;9.40;83.10
6822;DHT22;3449;48.728;8.968;2023-12-29T15:47:56;9.40;99.90
6822;DHT22;3449;48.728;8.968;2023-12-29T15:50:24;9.40;52.80
6822;DHT22;3449;48.728;8.968;2023-12-29T15:52:51;9.30;99.90
6822;DHT22;3449;48.728;8.968;2023-12-29T15:55:18;9.20;1.00
6822;DHT22;3449;48.728;8.968;2023-12-29T15:57:44;9.20;99.90
6822;DHT22;3449;48.728;8.968;2023-12-29T16:00:12;9.20;99.90
6822;DHT22;3449;48.728;8.968;2023-12-29T16:02:40;9.20;99.90
6822;DHT22;3449;48.728;8.968;2023-12-29T16:05:07;9.10;1.00
6822;DHT22;3449;48.728;8.968;2023-12-29T16:07:35;9.10;99.90
6822;DHT22;3449;48.728;8.968;2023-12-29T16:10:02;9.00;92.50
6822;DHT22;3449;48.728;8.968;2023-12-29T16:12:29;8.90;99.90
6822;DHT22;3449;48.728;8.968;2023-12-29T16:14:56;8.80;99.90
6822;DHT22;3449;48.728;8.968;2023-12-29T16:17:23;8.70;1.00
6822;DHT22;3449;48.728;8.968;2023-12-29T16:19:50;8.60;99.90